createdAt,value
2022-12-14T00:00:14.816Z,100.00
2022-12-14T00:03:03.693Z,100.00
2022-12-14T00:05:32.629Z,100.00
2022-12-14T00:08:01.973Z,100.00
2022-12-14T00:10:34.135Z,100.00
2022-12-14T00:13:03.351Z,100.00
2022-12-14T00:15:32.978Z,100.00
2022-12-14T00:18:01.862Z,100.00
2022-12-14T00:20:30.930Z,100.00
2022-12-14T00:22:59.789Z,100.00
2022-12-14T00:25:28.500Z,100.00
2022-12-14T00:27:57.199Z,100.00
2022-12-14T00:30:25.841Z,100.00
2022-12-14T00:32:54.874Z,100.00
2022-12-14T00:35:24.059Z,100.00
2022-12-14T00:37:52.692Z,100.00
2022-12-14T00:40:21.277Z,100.00
2022-12-14T00:42:49.882Z,100.00
2022-12-14T00:45:18.505Z,100.00
2022-12-14T00:47:47.192Z,100.00
2022-12-14T00:50:15.845Z,100.00
2022-12-14T00:52:44.553Z,100.00
2022-12-14T00:55:13.284Z,100.00
2022-12-14T00:57:41.968Z,100.00
2022-12-14T01:00:11.775Z,100.00
2022-12-14T01:02:40.526Z,100.00
2022-12-14T01:05:09.811Z,100.00
2022-12-14T01:07:38.541Z,100.00
2022-12-14T01:10:08.298Z,100.00
2022-12-14T01:12:37.009Z,100.00
2022-12-14T01:15:06.773Z,100.00
2022-12-14T01:17:35.449Z,100.00
2022-12-14T01:20:04.844Z,100.00
2022-12-14T01:22:33.444Z,100.00
2022-12-14T01:25:02.418Z,100.00
2022-12-14T01:27:31.306Z,100.00
2022-12-14T01:29:59.980Z,100.00
2022-12-14T01:32:28.801Z,100.00
2022-12-14T01:34:57.458Z,100.00
2022-12-14T01:37:26.104Z,100.00
2022-12-14T01:39:54.751Z,100.00
2022-12-14T01:42:23.437Z,100.00
2022-12-14T01:44:57.410Z,100.00
2022-12-14T01:47:44.367Z,100.00
2022-12-14T01:50:35.096Z,100.00
2022-12-14T01:53:11.864Z,100.00
2022-12-14T01:55:49.290Z,100.00
2022-12-14T01:58:24.746Z,100.00
2022-12-14T02:00:56.919Z,100.00
2022-12-14T02:03:44.153Z,100.00
2022-12-14T02:06:25.607Z,100.00
2022-12-14T02:08:56.019Z,100.00
2022-12-14T02:11:40.013Z,100.00
2022-12-14T02:14:08.867Z,100.00
2022-12-14T02:16:38.354Z,100.00
2022-12-14T02:19:07.103Z,100.00
2022-12-14T02:22:11.086Z,100.00
2022-12-14T02:25:14.913Z,100.00
2022-12-14T02:28:01.711Z,100.00
2022-12-14T02:30:38.203Z,100.00
2022-12-14T02:33:35.529Z,100.00
2022-12-14T02:36:32.456Z,100.00
2022-12-14T02:39:31.572Z,100.00
2022-12-14T02:42:15.625Z,100.00
2022-12-14T02:45:14.405Z,100.00
2022-12-14T02:47:54.797Z,100.00
2022-12-14T02:50:50.462Z,100.00
2022-12-14T02:53:43.385Z,100.00
2022-12-14T02:56:19.417Z,100.00
2022-12-14T02:58:50.803Z,100.00
2022-12-14T03:01:25.332Z,100.00
2022-12-14T03:03:54.460Z,100.00
2022-12-14T03:06:28.700Z,100.00
2022-12-14T03:09:09.368Z,100.00
2022-12-14T03:11:51.702Z,100.00
2022-12-14T03:14:31.631Z,100.00
2022-12-14T03:17:08.041Z,100.00
2022-12-14T03:19:45.194Z,100.00
2022-12-14T03:22:48.290Z,100.00
2022-12-14T03:25:34.804Z,100.00
2022-12-14T03:28:14.697Z,100.00
2022-12-14T03:31:04.057Z,100.00
2022-12-14T03:33:34.964Z,100.00
2022-12-14T03:36:25.374Z,100.00
2022-12-14T03:38:59.672Z,100.00
2022-12-14T03:41:39.797Z,100.00
2022-12-14T03:44:44.705Z,100.00
2022-12-14T03:47:33.376Z,100.00
2022-12-14T03:50:18.005Z,100.00
2022-12-14T03:52:59.258Z,100.00
2022-12-14T03:55:36.764Z,100.00
2022-12-14T03:58:21.585Z,100.00
2022-12-14T04:01:05.188Z,100.00
2022-12-14T04:03:57.014Z,100.00
2022-12-14T04:06:40.593Z,100.00
2022-12-14T04:09:20.525Z,100.00
2022-12-14T04:12:17.067Z,100.00
2022-12-14T04:15:22.977Z,100.00
2022-12-14T04:18:14.132Z,100.00
2022-12-14T04:20:50.495Z,100.00
2022-12-14T04:23:50.769Z,100.00
2022-12-14T04:26:25.976Z,100.00
2022-12-14T04:29:19.706Z,100.00
2022-12-14T04:31:56.887Z,100.00
2022-12-14T04:34:30.304Z,100.00
2022-12-14T04:37:05.391Z,100.00
2022-12-14T04:40:06.172Z,100.00
2022-12-14T04:42:42.891Z,100.00
2022-12-14T04:45:28.175Z,100.00
2022-12-14T04:48:18.873Z,100.00
2022-12-14T04:50:56.178Z,100.00
2022-12-14T04:53:29.686Z,100.00
2022-12-14T04:56:25.237Z,100.00
2022-12-14T04:58:54.773Z,100.00
2022-12-14T05:01:59.714Z,100.00
2022-12-14T05:04:40.448Z,100.00
2022-12-14T05:07:22.959Z,100.00
2022-12-14T05:10:19.281Z,100.00
2022-12-14T05:12:57.909Z,100.00
2022-12-14T05:15:34.881Z,100.00
2022-12-14T05:18:07.958Z,100.00
2022-12-14T05:20:36.413Z,100.00
2022-12-14T05:23:05.162Z,100.00
2022-12-14T05:25:33.913Z,100.00
2022-12-14T05:28:02.698Z,100.00
2022-12-14T05:30:31.648Z,100.00
2022-12-14T05:33:00.453Z,100.00
2022-12-14T05:35:29.395Z,100.00
2022-12-14T05:37:58.135Z,100.00
2022-12-14T05:40:26.882Z,100.00
2022-12-14T05:43:05.935Z,100.00
2022-12-14T05:45:35.004Z,100.00
2022-12-14T05:48:03.858Z,100.00
2022-12-14T05:50:32.580Z,100.00
2022-12-14T05:53:01.671Z,100.00
2022-12-14T05:55:30.405Z,100.00
2022-12-14T05:57:58.967Z,100.00
2022-12-14T06:00:27.643Z,100.00
2022-12-14T06:02:56.276Z,100.00
2022-12-14T06:05:24.997Z,100.00
2022-12-14T06:07:54.340Z,100.00
2022-12-14T06:10:23.381Z,100.00
2022-12-14T06:12:52.610Z,100.00
2022-12-14T06:15:21.805Z,100.00
2022-12-14T06:17:50.531Z,100.00
2022-12-14T06:20:19.174Z,100.00
2022-12-14T06:22:48.012Z,100.00
2022-12-14T06:25:16.879Z,100.00
2022-12-14T06:27:45.440Z,100.00
2022-12-14T06:30:14.574Z,100.00
2022-12-14T06:32:43.183Z,100.00
2022-12-14T06:35:11.897Z,100.00
2022-12-14T06:37:40.440Z,100.00
2022-12-14T06:40:10.110Z,100.00
2022-12-14T06:42:38.777Z,100.00
2022-12-14T06:45:07.899Z,100.00
2022-12-14T06:47:36.542Z,100.00
2022-12-14T06:50:05.808Z,100.00
2022-12-14T06:52:34.952Z,100.00
2022-12-14T06:55:06.662Z,100.00
2022-12-14T06:57:35.520Z,100.00
2022-12-14T07:00:04.986Z,100.00
2022-12-14T07:02:34.104Z,100.00
2022-12-14T07:05:03.674Z,100.00
2022-12-14T07:07:34.673Z,100.00
2022-12-14T07:10:05.238Z,100.00
2022-12-14T07:12:34.398Z,100.00
2022-12-14T07:15:04.509Z,100.00
2022-12-14T07:17:37.330Z,100.00
2022-12-14T07:20:08.447Z,100.00
2022-12-14T07:22:37.659Z,100.00
2022-12-14T07:25:08.021Z,100.00
2022-12-14T07:27:36.595Z,98.54
2022-12-14T07:30:05.888Z,99.67
2022-12-14T07:32:34.493Z,98.17
2022-12-14T07:35:03.979Z,97.38
2022-12-14T07:37:33.094Z,96.27
2022-12-14T07:40:01.867Z,93.37
2022-12-14T07:42:30.701Z,93.42
2022-12-14T07:45:01.685Z,93.84
2022-12-14T07:47:30.998Z,91.69
2022-12-14T07:49:59.792Z,90.22
2022-12-14T07:52:31.653Z,88.58
2022-12-14T07:55:04.720Z,89.57
2022-12-14T07:57:34.984Z,88.35
2022-12-14T08:00:05.063Z,87.74
2022-12-14T08:02:40.117Z,87.83
2022-12-14T08:05:12.513Z,89.89
2022-12-14T08:07:41.586Z,86.92
2022-12-14T08:10:10.509Z,88.53
2022-12-14T08:12:39.153Z,93.88
2022-12-14T08:15:08.997Z,91.82
2022-12-14T08:17:37.653Z,86.03
2022-12-14T08:20:07.510Z,86.95
2022-12-14T08:22:36.156Z,86.60
2022-12-14T08:25:05.238Z,90.17
2022-12-14T08:27:33.913Z,89.74
2022-12-14T08:30:03.482Z,85.50
2022-12-14T08:32:34.490Z,84.77
2022-12-14T08:35:03.278Z,86.59
2022-12-14T08:37:31.935Z,84.45
2022-12-14T08:40:00.631Z,83.59
2022-12-14T08:42:29.406Z,84.27
2022-12-14T08:44:58.176Z,82.01
2022-12-14T08:47:26.841Z,83.01
2022-12-14T08:49:55.467Z,83.50
2022-12-14T08:52:24.141Z,83.32
2022-12-14T08:54:52.873Z,83.80
2022-12-14T08:57:21.566Z,82.18
2022-12-14T09:00:01.358Z,83.75
2022-12-14T09:02:30.681Z,82.24
2022-12-14T09:04:59.540Z,83.56
2022-12-14T09:07:29.949Z,79.33
2022-12-14T09:09:58.839Z,79.26
2022-12-14T09:12:28.290Z,77.42
2022-12-14T09:14:59.868Z,78.40
2022-12-14T09:17:28.477Z,78.33
2022-12-14T09:19:58.305Z,80.05
2022-12-14T09:22:26.971Z,81.02
2022-12-14T09:24:55.656Z,77.20
2022-12-14T09:27:24.712Z,75.94
2022-12-14T09:29:53.560Z,77.16
2022-12-14T09:32:22.152Z,77.52
2022-12-14T09:34:50.732Z,77.66
2022-12-14T09:37:22.910Z,77.02
2022-12-14T09:39:51.666Z,76.37
2022-12-14T09:43:03.731Z,77.39
2022-12-14T09:45:48.604Z,75.18
2022-12-14T09:48:23.361Z,75.96
2022-12-14T09:50:53.722Z,74.69
2022-12-14T09:53:23.318Z,73.63
2022-12-14T09:55:56.116Z,73.33
2022-12-14T09:58:33.595Z,74.28
2022-12-14T10:01:24.009Z,73.62
2022-12-14T10:04:04.878Z,72.00
2022-12-14T10:06:53.796Z,72.26
2022-12-14T10:09:56.639Z,70.46
2022-12-14T10:12:52.396Z,70.94
2022-12-14T10:15:28.997Z,70.20
2022-12-14T10:18:49.319Z,70.28
2022-12-14T10:21:23.322Z,69.58
2022-12-14T10:24:06.322Z,70.01
2022-12-14T10:26:47.298Z,71.55
2022-12-14T10:29:37.512Z,70.70
2022-12-14T10:32:40.756Z,65.33
2022-12-14T10:35:18.759Z,66.40
2022-12-14T10:38:18.541Z,65.20
2022-12-14T10:40:53.873Z,63.61
2022-12-14T10:44:06.945Z,63.66
2022-12-14T10:46:46.545Z,64.00
2022-12-14T10:49:31.429Z,63.45
2022-12-14T10:52:22.328Z,63.10
2022-12-14T10:54:58.988Z,63.24
2022-12-14T10:57:28.300Z,61.42
2022-12-14T11:00:08.378Z,60.59
2022-12-14T11:02:43.657Z,60.52
2022-12-14T11:05:43.064Z,59.86
2022-12-14T11:08:42.452Z,60.13
2022-12-14T11:11:22.468Z,60.49
2022-12-14T11:14:07.022Z,62.34
2022-12-14T11:16:38.940Z,58.53
2022-12-14T11:19:22.762Z,59.60
2022-12-14T11:22:07.302Z,57.06
2022-12-14T11:24:44.650Z,56.02
2022-12-14T11:27:18.116Z,54.44
2022-12-14T11:29:49.560Z,54.49
2022-12-14T11:32:25.096Z,53.95
2022-12-14T11:34:59.244Z,54.14
2022-12-14T11:37:31.051Z,54.37
2022-12-14T11:40:04.203Z,54.09
2022-12-14T11:42:33.540Z,54.22
2022-12-14T11:45:31.659Z,52.85
2022-12-14T11:48:15.390Z,51.85
2022-12-14T11:50:46.000Z,52.32
2022-12-14T11:53:19.175Z,52.62
2022-12-14T11:55:52.985Z,54.02
2022-12-14T11:58:34.913Z,53.09
2022-12-14T12:01:15.090Z,55.46
2022-12-14T12:03:51.278Z,55.84
2022-12-14T12:06:24.820Z,55.86
2022-12-14T12:09:02.899Z,56.73
2022-12-14T12:11:34.832Z,57.52
2022-12-14T12:14:29.486Z,58.57
2022-12-14T12:16:58.964Z,57.49
2022-12-14T12:19:37.810Z,59.01
2022-12-14T12:22:11.127Z,59.19
2022-12-14T12:25:24.969Z,58.66
2022-12-14T12:27:59.943Z,59.87
2022-12-14T12:30:33.935Z,60.53
2022-12-14T12:33:23.149Z,59.73
2022-12-14T12:35:56.275Z,60.95
2022-12-14T12:38:49.905Z,61.35
2022-12-14T12:41:24.452Z,61.22
2022-12-14T12:44:01.451Z,62.11
2022-12-14T12:47:15.044Z,61.97
2022-12-14T12:49:34.461Z,62.78
2022-12-14T12:52:21.943Z,62.13
2022-12-14T12:55:23.006Z,62.48
2022-12-14T12:57:55.515Z,62.76
2022-12-14T13:00:27.435Z,63.30
2022-12-14T13:03:23.044Z,62.97
2022-12-14T13:05:55.804Z,62.92
2022-12-14T13:08:32.071Z,63.42
2022-12-14T13:11:25.820Z,63.72
2022-12-14T13:14:02.882Z,64.71
2022-12-14T13:16:39.318Z,64.09
2022-12-14T13:19:50.541Z,63.98
2022-12-14T13:22:32.366Z,64.52
2022-12-14T13:25:33.808Z,66.46
2022-12-14T13:29:08.253Z,68.17
2022-12-14T13:31:54.110Z,67.09
2022-12-14T13:35:06.160Z,66.71
2022-12-14T13:38:15.163Z,65.38
2022-12-14T13:41:03.800Z,66.16
2022-12-14T13:44:03.471Z,66.09
2022-12-14T13:46:32.301Z,66.71
2022-12-14T13:49:09.260Z,67.59
2022-12-14T13:51:40.706Z,66.92
2022-12-14T13:54:21.394Z,68.86
2022-12-14T13:56:51.500Z,67.28
2022-12-14T13:59:48.714Z,67.04
2022-12-14T14:02:32.706Z,67.36
2022-12-14T14:05:27.855Z,66.41
2022-12-14T14:08:10.230Z,67.02
2022-12-14T14:10:42.409Z,68.07
2022-12-14T14:13:29.382Z,68.03
2022-12-14T14:16:30.366Z,69.73
2022-12-14T14:19:21.287Z,68.50
2022-12-14T14:22:26.668Z,67.94
2022-12-14T14:25:33.791Z,70.29
2022-12-14T14:28:04.463Z,70.29
2022-12-14T14:30:41.753Z,69.35
2022-12-14T14:33:49.059Z,68.44
2022-12-14T14:36:26.256Z,69.16
2022-12-14T14:38:56.178Z,69.54
2022-12-14T14:41:30.443Z,70.57
2022-12-14T14:44:05.122Z,70.54
2022-12-14T14:46:42.783Z,70.26
2022-12-14T14:49:30.752Z,71.79
2022-12-14T14:52:40.548Z,71.63
2022-12-14T14:55:53.251Z,71.51
2022-12-14T14:58:28.229Z,71.99
2022-12-14T15:01:27.088Z,72.73
2022-12-14T15:04:10.690Z,72.17
2022-12-14T15:06:42.994Z,72.99
2022-12-14T15:09:31.647Z,72.75
2022-12-14T15:12:31.064Z,73.01
2022-12-14T15:15:32.133Z,72.88
2022-12-14T15:18:24.860Z,72.92
2022-12-14T15:21:08.030Z,72.50
2022-12-14T15:24:06.239Z,75.82
2022-12-14T15:26:35.252Z,74.08
2022-12-14T15:29:04.747Z,73.65
2022-12-14T15:31:40.133Z,74.61
2022-12-14T15:34:18.753Z,75.29
2022-12-14T15:36:49.235Z,72.31
2022-12-14T15:40:00.926Z,73.22
2022-12-14T15:42:29.779Z,72.91
2022-12-14T15:45:02.859Z,75.23
2022-12-14T15:47:32.099Z,75.14
2022-12-14T15:50:25.873Z,72.77
2022-12-14T15:53:20.894Z,72.38
2022-12-14T15:56:00.262Z,75.11
2022-12-14T15:58:41.297Z,73.31
2022-12-14T16:01:23.129Z,74.35
2022-12-14T16:04:01.009Z,73.91
2022-12-14T16:06:31.406Z,73.80
2022-12-14T16:09:00.104Z,76.55
2022-12-14T16:11:44.989Z,76.81
2022-12-14T16:14:38.508Z,74.62
2022-12-14T16:17:07.330Z,74.80
2022-12-14T16:19:57.338Z,75.69
2022-12-14T16:22:33.819Z,74.62
2022-12-14T16:25:08.400Z,74.63
2022-12-14T16:27:49.947Z,76.00
2022-12-14T16:30:34.746Z,76.41
2022-12-14T16:33:21.265Z,77.12
2022-12-14T16:36:20.363Z,77.33
2022-12-14T16:39:03.018Z,76.36
2022-12-14T16:41:41.445Z,76.23
2022-12-14T16:44:22.362Z,77.00
2022-12-14T16:47:03.161Z,77.03
2022-12-14T16:49:42.524Z,77.72
2022-12-14T16:52:34.844Z,77.83
2022-12-14T16:55:20.993Z,77.21
2022-12-14T16:57:49.571Z,77.89
2022-12-14T17:00:23.072Z,79.06
2022-12-14T17:02:59.973Z,80.14
2022-12-14T17:05:52.512Z,80.77
2022-12-14T17:08:21.248Z,80.79
2022-12-14T17:10:51.067Z,80.84
2022-12-14T17:13:19.828Z,82.42
2022-12-14T17:16:00.792Z,82.04
2022-12-14T17:18:41.613Z,83.19
2022-12-14T17:21:22.289Z,83.34
2022-12-14T17:23:51.441Z,82.91
2022-12-14T17:26:45.153Z,82.33
2022-12-14T17:29:27.319Z,83.43
2022-12-14T17:32:01.326Z,84.04
2022-12-14T17:34:30.562Z,83.39
2022-12-14T17:36:59.600Z,83.71
2022-12-14T17:39:35.720Z,84.29
2022-12-14T17:42:06.045Z,83.31
2022-12-14T17:44:34.649Z,83.37
2022-12-14T17:47:04.139Z,83.77
2022-12-14T17:49:36.252Z,83.03
2022-12-14T17:52:08.115Z,83.51
2022-12-14T17:54:36.704Z,84.23
2022-12-14T17:57:07.618Z,83.42
2022-12-14T17:59:37.093Z,83.69
2022-12-14T18:02:42.693Z,82.77
2022-12-14T18:05:19.713Z,83.66
2022-12-14T18:07:49.536Z,83.06
2022-12-14T18:10:18.854Z,82.23
2022-12-14T18:12:47.820Z,82.10
2022-12-14T18:15:27.248Z,82.33
2022-12-14T18:17:57.549Z,81.56
2022-12-14T18:20:26.469Z,81.97
2022-12-14T18:22:55.859Z,82.54
2022-12-14T18:25:37.660Z,81.82
2022-12-14T18:28:08.234Z,82.14
2022-12-14T18:30:44.460Z,82.75
2022-12-14T18:33:21.699Z,82.47
2022-12-14T18:35:52.812Z,82.60
2022-12-14T18:38:22.174Z,82.80
2022-12-14T18:40:53.614Z,84.18
2022-12-14T18:43:26.249Z,84.18
2022-12-14T18:45:56.606Z,83.31
2022-12-14T18:48:26.235Z,82.59
2022-12-14T18:50:55.968Z,83.23
2022-12-14T18:53:26.146Z,83.35
2022-12-14T18:55:55.663Z,83.49
2022-12-14T18:58:28.787Z,82.77
2022-12-14T19:01:00.444Z,82.93
2022-12-14T19:03:32.880Z,82.58
2022-12-14T19:06:43.549Z,83.00
2022-12-14T19:09:07.475Z,82.64
2022-12-14T19:11:44.536Z,82.74
2022-12-14T19:14:13.196Z,83.48
2022-12-14T19:16:41.860Z,83.60
2022-12-14T19:19:13.271Z,82.82
2022-12-14T19:21:45.253Z,81.26
2022-12-14T19:24:15.133Z,81.03
2022-12-14T19:26:49.400Z,80.84
2022-12-14T19:29:18.260Z,80.67
2022-12-14T19:31:53.946Z,80.93
2022-12-14T19:34:22.943Z,80.17
2022-12-14T19:36:54.695Z,80.42
2022-12-14T19:39:23.498Z,80.10
2022-12-14T19:42:06.140Z,80.15
2022-12-14T19:44:38.121Z,80.41
2022-12-14T19:47:06.797Z,79.44
2022-12-14T19:49:41.184Z,79.84
2022-12-14T19:52:09.806Z,79.70
2022-12-14T19:54:41.874Z,79.35
2022-12-14T19:57:11.452Z,78.67
2022-12-14T19:59:40.280Z,79.50
2022-12-14T20:02:15.648Z,78.77
2022-12-14T20:04:47.685Z,78.35
2022-12-14T20:07:16.292Z,79.09
2022-12-14T20:09:44.955Z,78.90
2022-12-14T20:12:14.497Z,78.82
2022-12-14T20:14:45.679Z,78.82
2022-12-14T20:17:19.326Z,78.86
2022-12-14T20:19:48.694Z,79.03
2022-12-14T20:22:17.365Z,79.12
2022-12-14T20:24:47.401Z,78.93
2022-12-14T20:27:17.270Z,79.29
2022-12-14T20:29:46.554Z,79.36
2022-12-14T20:32:16.087Z,79.52
2022-12-14T20:34:44.722Z,79.31
2022-12-14T20:37:13.386Z,79.95
2022-12-14T20:39:42.017Z,79.86
2022-12-14T20:42:11.311Z,80.11
2022-12-14T20:44:39.913Z,79.90
2022-12-14T20:47:08.970Z,80.33
2022-12-14T20:49:39.036Z,80.20
2022-12-14T20:52:07.742Z,80.60
2022-12-14T20:54:36.394Z,80.67
2022-12-14T20:57:05.043Z,81.01
2022-12-14T20:59:33.683Z,81.30
2022-12-14T21:02:02.550Z,81.51
2022-12-14T21:04:31.472Z,81.88
2022-12-14T21:07:00.078Z,81.79
2022-12-14T21:09:28.694Z,82.55
2022-12-14T21:12:15.596Z,82.71
2022-12-14T21:14:46.622Z,82.74
2022-12-14T21:17:16.905Z,83.05
2022-12-14T21:19:45.560Z,83.49
2022-12-14T21:22:21.038Z,83.63
2022-12-14T21:25:06.649Z,83.78
2022-12-14T21:27:39.367Z,84.20
2022-12-14T21:30:13.566Z,83.90
2022-12-14T21:32:42.250Z,83.37
2022-12-14T21:35:10.971Z,83.41
2022-12-14T21:37:39.612Z,83.62
2022-12-14T21:40:28.779Z,83.80
2022-12-14T21:42:57.357Z,83.96
2022-12-14T21:45:26.128Z,84.40
2022-12-14T21:47:54.790Z,84.09
2022-12-14T21:50:23.537Z,84.11
2022-12-14T21:52:52.162Z,83.47
2022-12-14T21:55:20.832Z,84.62
2022-12-14T21:58:07.692Z,84.04
2022-12-14T22:00:38.464Z,84.53
2022-12-14T22:03:07.327Z,84.60
2022-12-14T22:05:39.822Z,84.68
2022-12-14T22:08:08.472Z,84.18
2022-12-14T22:10:37.111Z,84.43
2022-12-14T22:13:05.803Z,84.17
2022-12-14T22:15:34.439Z,84.02
2022-12-14T22:18:03.097Z,84.67
2022-12-14T22:20:31.878Z,83.68
2022-12-14T22:23:00.933Z,83.75
2022-12-14T22:25:29.617Z,83.84
2022-12-14T22:27:58.210Z,83.25
2022-12-14T22:30:31.713Z,83.73
2022-12-14T22:33:00.628Z,83.75
2022-12-14T22:35:32.269Z,83.43
2022-12-14T22:38:00.928Z,83.95
2022-12-14T22:40:32.220Z,82.75
2022-12-14T22:43:00.828Z,83.24
2022-12-14T22:45:29.497Z,83.39
2022-12-14T22:47:58.362Z,83.24
2022-12-14T22:50:27.055Z,83.29
2022-12-14T22:52:55.767Z,82.72
2022-12-14T22:55:24.770Z,83.16
2022-12-14T22:57:54.694Z,83.01
2022-12-14T23:00:23.392Z,82.94
2022-12-14T23:02:52.278Z,82.57
2022-12-14T23:05:21.382Z,82.76
2022-12-14T23:07:50.238Z,82.67
2022-12-14T23:10:38.012Z,82.95
2022-12-14T23:13:24.906Z,83.35
2022-12-14T23:16:12.073Z,83.32
2022-12-14T23:18:59.149Z,83.17
2022-12-14T23:21:46.287Z,83.70
2022-12-14T23:24:33.451Z,83.77
2022-12-14T23:27:20.563Z,84.55
2022-12-14T23:30:07.620Z,84.52
2022-12-14T23:32:54.685Z,84.82
2022-12-14T23:35:41.751Z,84.79
2022-12-14T23:38:28.743Z,84.96
2022-12-14T23:41:20.532Z,85.85
2022-12-14T23:44:07.877Z,85.37
2022-12-14T23:46:54.925Z,85.92
2022-12-14T23:49:41.929Z,85.88
2022-12-14T23:52:28.999Z,86.03
2022-12-14T23:55:16.144Z,87.07
2022-12-14T23:58:03.222Z,86.08
